sensor_id;sensor_type;location;lat;lon;timestamp;pressure;altitude;pressure_sealevel;temperature;humidity
42067;BME280;27734;47.028;28.820;2023-04-23T00:00:16;100452.13;;;9.13;68.82
42067;BME280;27734;47.028;28.820;2023-04-23T00:03:07;100452.61;;;9.03;69.15
42067;BME280;27734;47.028;28.820;2023-04-23T00:05:37;100451.50;;;8.97;68.84
42067;BME280;27734;47.028;28.820;2023-04-23T00:08:07;100456.58;;;8.93;69.43
42067;BME280;27734;47.028;28.820;2023-04-23T00:10:40;100452.98;;;8.91;68.75
42067;BME280;27734;47.028;28.820;2023-04-23T00:13:11;100453.77;;;8.88;68.95
42067;BME280;27734;47.028;28.820;2023-04-23T00:15:40;100453.70;;;8.87;69.09
42067;BME280;27734;47.028;28.820;2023-04-23T00:18:09;100450.17;;;8.86;68.98
42067;BME280;27734;47.028;28.820;2023-04-23T00:20:38;100445.86;;;8.87;68.83
42067;BME280;27734;47.028;28.820;2023-04-23T00:23:07;100451.16;;;8.88;69.41
42067;BME280;27734;47.028;28.820;2023-04-23T00:25:35;100454.72;;;8.90;69.10
42067;BME280;27734;47.028;28.820;2023-04-23T00:28:04;100455.47;;;8.88;69.25
42067;BME280;27734;47.028;28.820;2023-04-23T00:30:33;100444.81;;;8.83;69.89
42067;BME280;27734;47.028;28.820;2023-04-23T00:33:01;100449.85;;;8.78;69.32
42067;BME280;27734;47.028;28.820;2023-04-23T00:35:30;100449.59;;;8.72;69.34
42067;BME280;27734;47.028;28.820;2023-04-23T00:37:58;100448.52;;;8.67;70.20
42067;BME280;27734;47.028;28.820;2023-04-23T00:40:27;100456.98;;;8.61;70.26
42067;BME280;27734;47.028;28.820;2023-04-23T00:42:55;100445.50;;;8.58;69.75
42067;BME280;27734;47.028;28.820;2023-04-23T00:45:25;100454.03;;;8.54;70.37
42067;BME280;27734;47.028;28.820;2023-04-23T00:47:53;100445.23;;;8.52;70.77
42067;BME280;27734;47.028;28.820;2023-04-23T00:50:23;100445.98;;;8.49;70.21
42067;BME280;27734;47.028;28.820;2023-04-23T00:52:52;100453.64;;;8.44;70.85
42067;BME280;27734;47.028;28.820;2023-04-23T00:55:21;100453.44;;;8.40;71.09
42067;BME280;27734;47.028;28.820;2023-04-23T00:57:50;100458.59;;;8.38;70.18
42067;BME280;27734;47.028;28.820;2023-04-23T01:00:19;100455.91;;;8.37;70.69
42067;BME280;27734;47.028;28.820;2023-04-23T01:02:48;100455.78;;;8.34;71.04
42067;BME280;27734;47.028;28.820;2023-04-23T01:05:17;100453.84;;;8.30;70.72
42067;BME280;27734;47.028;28.820;2023-04-23T01:07:47;100458.94;;;8.26;71.32
42067;BME280;27734;47.028;28.820;2023-04-23T01:10:16;100456.25;;;8.25;70.87
42067;BME280;27734;47.028;28.820;2023-04-23T01:12:45;100457.14;;;8.25;70.73
42067;BME280;27734;47.028;28.820;2023-04-23T01:15:14;100457.14;;;8.25;71.10
42067;BME280;27734;47.028;28.820;2023-04-23T01:17:43;100456.12;;;8.22;71.77
42067;BME280;27734;47.028;28.820;2023-04-23T01:20:12;100455.09;;;8.18;71.80
42067;BME280;27734;47.028;28.820;2023-04-23T01:22:41;100447.19;;;8.17;71.50
42067;BME280;27734;47.028;28.820;2023-04-23T01:25:10;100445.45;;;8.17;72.02
42067;BME280;27734;47.028;28.820;2023-04-23T01:27:40;100448.20;;;8.20;72.35
42067;BME280;27734;47.028;28.820;2023-04-23T01:30:10;100442.16;;;8.21;72.27
42067;BME280;27734;47.028;28.820;2023-04-23T01:32:39;100442.98;;;8.20;72.02
42067;BME280;27734;47.028;28.820;2023-04-23T01:35:10;100435.81;;;8.16;71.92
42067;BME280;27734;47.028;28.820;2023-04-23T01:37:40;100441.83;;;8.14;71.55
42067;BME280;27734;47.028;28.820;2023-04-23T01:40:11;100440.97;;;8.15;71.61
42067;BME280;27734;47.028;28.820;2023-04-23T01:42:40;100437.48;;;8.14;72.36
42067;BME280;27734;47.028;28.820;2023-04-23T01:45:10;100443.45;;;8.12;71.70
42067;BME280;27734;47.028;28.820;2023-04-23T01:47:40;100440.77;;;8.10;72.00
42067;BME280;27734;47.028;28.820;2023-04-23T01:50:10;100432.12;;;8.11;71.94
42067;BME280;27734;47.028;28.820;2023-04-23T01:52:38;100436.59;;;8.14;72.54
42067;BME280;27734;47.028;28.820;2023-04-23T01:55:09;100442.70;;;8.14;72.81
42067;BME280;27734;47.028;28.820;2023-04-23T01:57:37;100440.16;;;8.16;72.65
42067;BME280;27734;47.028;28.820;2023-04-23T02:00:09;100439.41;;;8.18;72.18
42067;BME280;27734;47.028;28.820;2023-04-23T02:02:42;100441.18;;;8.19;72.82
42067;BME280;27734;47.028;28.820;2023-04-23T02:05:13;100447.33;;;8.20;72.94
42067;BME280;27734;47.028;28.820;2023-04-23T02:07:43;100443.93;;;8.22;72.59
42067;BME280;27734;47.028;28.820;2023-04-23T02:10:12;100450.89;;;8.22;72.89
42067;BME280;27734;47.028;28.820;2023-04-23T02:12:42;100455.16;;;8.20;73.12
42067;BME280;27734;47.028;28.820;2023-04-23T02:15:11;100453.16;;;8.14;74.08
42067;BME280;27734;47.028;28.820;2023-04-23T02:17:40;100453.84;;;8.10;73.54
42067;BME280;27734;47.028;28.820;2023-04-23T02:20:09;100450.95;;;8.04;73.76
42067;BME280;27734;47.028;28.820;2023-04-23T02:22:40;100448.20;;;8.01;73.46
42067;BME280;27734;47.028;28.820;2023-04-23T02:25:09;100448.13;;;7.99;74.30
42067;BME280;27734;47.028;28.820;2023-04-23T02:27:37;100450.60;;;7.96;73.60
42067;BME280;27734;47.028;28.820;2023-04-23T02:30:09;100454.59;;;7.88;74.57
42067;BME280;27734;47.028;28.820;2023-04-23T02:32:39;100456.78;;;7.79;75.05
42067;BME280;27734;47.028;28.820;2023-04-23T02:35:09;100456.42;;;7.71;74.52
42067;BME280;27734;47.028;28.820;2023-04-23T02:37:39;100454.52;;;7.67;74.73
42067;BME280;27734;47.028;28.820;2023-04-23T02:40:10;100456.14;;;7.65;74.88
42067;BME280;27734;47.028;28.820;2023-04-23T02:42:39;100457.87;;;7.64;75.11
42067;BME280;27734;47.028;28.820;2023-04-23T02:45:09;100458.75;;;7.65;74.91
42067;BME280;27734;47.028;28.820;2023-04-23T02:47:38;100457.87;;;7.64;75.81
42067;BME280;27734;47.028;28.820;2023-04-23T02:50:08;100462.20;;;7.64;75.05
42067;BME280;27734;47.028;28.820;2023-04-23T02:52:37;100460.63;;;7.67;75.38
42067;BME280;27734;47.028;28.820;2023-04-23T02:55:07;100458.89;;;7.68;75.08
42067;BME280;27734;47.028;28.820;2023-04-23T02:57:36;100463.30;;;7.69;75.23
42067;BME280;27734;47.028;28.820;2023-04-23T03:00:09;100468.59;;;7.70;75.69
42067;BME280;27734;47.028;28.820;2023-04-23T03:02:41;100466.88;;;7.71;75.69
42067;BME280;27734;47.028;28.820;2023-04-23T03:05:10;100473.09;;;7.73;75.55
42067;BME280;27734;47.028;28.820;2023-04-23T03:07:39;100473.23;;;7.76;75.17
42067;BME280;27734;47.028;28.820;2023-04-23T03:10:09;100474.11;;;7.77;75.26
42067;BME280;27734;47.028;28.820;2023-04-23T03:12:38;100473.30;;;7.78;75.82
42067;BME280;27734;47.028;28.820;2023-04-23T03:15:09;100465.46;;;7.78;75.42
42067;BME280;27734;47.028;28.820;2023-04-23T03:17:38;100474.11;;;7.77;76.02
42067;BME280;27734;47.028;28.820;2023-04-23T03:20:09;100472.23;;;7.74;75.59
42067;BME280;27734;47.028;28.820;2023-04-23T03:22:38;100476.66;;;7.75;75.35
42067;BME280;27734;47.028;28.820;2023-04-23T03:25:08;100477.61;;;7.77;75.63
42067;BME280;27734;47.028;28.820;2023-04-23T03:27:38;100482.97;;;7.80;75.35
42067;BME280;27734;47.028;28.820;2023-04-23T03:30:09;100485.66;;;7.82;75.79
42067;BME280;27734;47.028;28.820;2023-04-23T03:32:38;100483.12;;;7.83;76.00
42067;BME280;27734;47.028;28.820;2023-04-23T03:35:08;100481.49;;;7.85;75.58
42067;BME280;27734;47.028;28.820;2023-04-23T03:37:37;100482.66;;;7.92;76.11
42067;BME280;27734;47.028;28.820;2023-04-23T03:40:09;100487.25;;;7.98;75.83
42067;BME280;27734;47.028;28.820;2023-04-23T03:42:39;100486.52;;;8.00;75.55
42067;BME280;27734;47.028;28.820;2023-04-23T03:45:10;100484.98;;;8.05;76.12
42067;BME280;27734;47.028;28.820;2023-04-23T03:47:40;100493.04;;;8.10;75.85
42067;BME280;27734;47.028;28.820;2023-04-23T03:50:09;100490.64;;;8.15;76.19
42067;BME280;27734;47.028;28.820;2023-04-23T03:52:40;100496.08;;;8.19;75.97
42067;BME280;27734;47.028;28.820;2023-04-23T03:55:11;100498.83;;;8.22;75.82
42067;BME280;27734;47.028;28.820;2023-04-23T03:57:44;100499.95;;;8.27;75.74
42067;BME280;27734;47.028;28.820;2023-04-23T04:00:24;100500.09;;;8.31;75.65
42067;BME280;27734;47.028;28.820;2023-04-23T04:02:53;100497.55;;;8.32;75.89
42067;BME280;27734;47.028;28.820;2023-04-23T04:05:24;100498.42;;;8.33;76.12
42067;BME280;27734;47.028;28.820;2023-04-23T04:07:54;100507.08;;;8.32;75.86
42067;BME280;27734;47.028;28.820;2023-04-23T04:10:25;100503.66;;;8.33;75.66
42067;BME280;27734;47.028;28.820;2023-04-23T04:12:54;100502.84;;;8.34;76.32
42067;BME280;27734;47.028;28.820;2023-04-23T04:15:23;100507.42;;;8.39;75.95
42067;BME280;27734;47.028;28.820;2023-04-23T04:17:51;100515.52;;;8.44;76.59
42067;BME280;27734;47.028;28.820;2023-04-23T04:20:30;100512.35;;;8.51;76.14
42067;BME280;27734;47.028;28.820;2023-04-23T04:22:58;100517.72;;;8.54;75.96
42067;BME280;27734;47.028;28.820;2023-04-23T04:25:27;100520.47;;;8.57;76.68
42067;BME280;27734;47.028;28.820;2023-04-23T04:27:56;100521.42;;;8.59;77.15
42067;BME280;27734;47.028;28.820;2023-04-23T04:30:25;100525.84;;;8.60;76.31
42067;BME280;27734;47.028;28.820;2023-04-23T04:32:54;100526.79;;;8.62;76.20
42067;BME280;27734;47.028;28.820;2023-04-23T04:35:22;100530.48;;;8.68;76.37
42067;BME280;27734;47.028;28.820;2023-04-23T04:37:51;100528.08;;;8.72;76.97
42067;BME280;27734;47.028;28.820;2023-04-23T04:40:21;100535.37;;;8.79;77.06
42067;BME280;27734;47.028;28.820;2023-04-23T04:42:49;100525.17;;;8.86;76.26
42067;BME280;27734;47.028;28.820;2023-04-23T04:45:19;100534.23;;;8.94;76.67
42067;BME280;27734;47.028;28.820;2023-04-23T04:47:48;100530.88;;;8.96;76.46
42067;BME280;27734;47.028;28.820;2023-04-23T04:50:17;100533.62;;;8.99;76.37
42067;BME280;27734;47.028;28.820;2023-04-23T04:52:45;100535.45;;;9.02;76.35
42067;BME280;27734;47.028;28.820;2023-04-23T04:55:14;100542.68;;;9.08;76.52
42067;BME280;27734;47.028;28.820;2023-04-23T04:57:42;100549.00;;;9.13;77.01
42067;BME280;27734;47.028;28.820;2023-04-23T05:00:21;100544.74;;;9.15;76.38
42067;BME280;27734;47.028;28.820;2023-04-23T05:02:50;100541.40;;;9.19;76.61
42067;BME280;27734;47.028;28.820;2023-04-23T05:05:20;100553.05;;;9.26;77.02
42067;BME280;27734;47.028;28.820;2023-04-23T05:07:49;100544.47;;;9.30;76.73
42067;BME280;27734;47.028;28.820;2023-04-23T05:10:18;100551.63;;;9.34;76.71
42067;BME280;27734;47.028;28.820;2023-04-23T05:12:47;100547.47;;;9.39;76.84
42067;BME280;27734;47.028;28.820;2023-04-23T05:15:18;100548.45;;;9.41;76.36
42067;BME280;27734;47.028;28.820;2023-04-23T05:17:47;100555.52;;;9.44;76.82
42067;BME280;27734;47.028;28.820;2023-04-23T05:20:16;100556.59;;;9.49;76.83
42067;BME280;27734;47.028;28.820;2023-04-23T05:22:45;100555.95;;;9.54;76.89
42067;BME280;27734;47.028;28.820;2023-04-23T05:25:14;100549.23;;;9.61;76.77
42067;BME280;27734;47.028;28.820;2023-04-23T05:27:42;100553.02;;;9.68;76.94
42067;BME280;27734;47.028;28.820;2023-04-23T05:30:12;100561.06;;;9.73;76.17
42067;BME280;27734;47.028;28.820;2023-04-23T05:32:40;100558.69;;;9.79;76.71
42067;BME280;27734;47.028;28.820;2023-04-23T05:35:09;100558.98;;;9.86;76.67
42067;BME280;27734;47.028;28.820;2023-04-23T05:37:38;100555.75;;;9.94;76.42
42067;BME280;27734;47.028;28.820;2023-04-23T05:40:08;100552.48;;;9.99;75.91
42067;BME280;27734;47.028;28.820;2023-04-23T05:42:37;100561.59;;;10.09;76.60
42067;BME280;27734;47.028;28.820;2023-04-23T05:45:08;100565.34;;;10.16;76.05
42067;BME280;27734;47.028;28.820;2023-04-23T05:47:36;100559.45;;;10.21;76.60
42067;BME280;27734;47.028;28.820;2023-04-23T05:50:07;100561.42;;;10.27;76.33
42067;BME280;27734;47.028;28.820;2023-04-23T05:52:37;100559.95;;;10.34;76.29
42067;BME280;27734;47.028;28.820;2023-04-23T05:55:08;100564.42;;;10.36;75.52
42067;BME280;27734;47.028;28.820;2023-04-23T05:57:37;100558.44;;;10.40;75.37
42067;BME280;27734;47.028;28.820;2023-04-23T06:00:08;100558.49;;;10.42;75.30
42067;BME280;27734;47.028;28.820;2023-04-23T06:02:41;100563.91;;;10.47;74.98
42067;BME280;27734;47.028;28.820;2023-04-23T06:05:10;100562.45;;;10.55;75.33
42067;BME280;27734;47.028;28.820;2023-04-23T06:07:39;100564.48;;;10.62;74.87
42067;BME280;27734;47.028;28.820;2023-04-23T06:10:09;100566.55;;;10.71;74.89
42067;BME280;27734;47.028;28.820;2023-04-23T06:12:38;100568.54;;;10.78;74.81
42067;BME280;27734;47.028;28.820;2023-04-23T06:15:10;100561.86;;;10.86;74.65
42067;BME280;27734;47.028;28.820;2023-04-23T06:17:38;100570.94;;;10.96;74.80
42067;BME280;27734;47.028;28.820;2023-04-23T06:20:09;100573.89;;;11.05;74.18
42067;BME280;27734;47.028;28.820;2023-04-23T06:22:38;100572.52;;;11.17;74.66
42067;BME280;27734;47.028;28.820;2023-04-23T06:25:08;100572.01;;;11.27;74.69
42067;BME280;27734;47.028;28.820;2023-04-23T06:27:37;100573.30;;;11.40;74.65
42067;BME280;27734;47.028;28.820;2023-04-23T06:30:11;100572.73;;;11.48;73.47
42067;BME280;27734;47.028;28.820;2023-04-23T06:32:39;100568.77;;;11.61;74.32
42067;BME280;27734;47.028;28.820;2023-04-23T06:35:09;100569.20;;;11.75;73.75
42067;BME280;27734;47.028;28.820;2023-04-23T06:37:37;100566.16;;;11.90;72.77
42067;BME280;27734;47.028;28.820;2023-04-23T06:40:07;100576.30;;;12.05;72.32
42067;BME280;27734;47.028;28.820;2023-04-23T06:42:36;100574.89;;;12.16;72.69
42067;BME280;27734;47.028;28.820;2023-04-23T06:45:28;100567.36;;;12.29;72.68
42067;BME280;27734;47.028;28.820;2023-04-23T06:47:58;100565.27;;;12.47;72.27
42067;BME280;27734;47.028;28.820;2023-04-23T06:50:27;100574.50;;;12.63;72.05
42067;BME280;27734;47.028;28.820;2023-04-23T06:52:56;100568.08;;;12.85;71.32
42067;BME280;27734;47.028;28.820;2023-04-23T06:55:24;100565.87;;;13.01;71.59
42067;BME280;27734;47.028;28.820;2023-04-23T06:57:53;100574.97;;;13.12;71.33
42067;BME280;27734;47.028;28.820;2023-04-23T07:00:22;100570.83;;;13.22;71.63
42067;BME280;27734;47.028;28.820;2023-04-23T07:02:50;100567.83;;;13.41;70.11
42067;BME280;27734;47.028;28.820;2023-04-23T07:05:19;100568.20;;;13.57;70.46
42067;BME280;27734;47.028;28.820;2023-04-23T07:07:47;100570.41;;;13.75;69.74
42067;BME280;27734;47.028;28.820;2023-04-23T07:10:16;100568.87;;;13.84;70.24
42067;BME280;27734;47.028;28.820;2023-04-23T07:12:45;100573.45;;;13.92;71.44
42067;BME280;27734;47.028;28.820;2023-04-23T07:15:13;100568.45;;;14.04;69.37
42067;BME280;27734;47.028;28.820;2023-04-23T07:17:42;100565.32;;;14.22;69.39
42067;BME280;27734;47.028;28.820;2023-04-23T07:20:11;100570.02;;;14.35;68.84
42067;BME280;27734;47.028;28.820;2023-04-23T07:22:39;100565.81;;;14.45;69.58
42067;BME280;27734;47.028;28.820;2023-04-23T07:25:09;100562.48;;;14.54;69.16
42067;BME280;27734;47.028;28.820;2023-04-23T07:27:37;100566.53;;;14.79;69.51
42067;BME280;27734;47.028;28.820;2023-04-23T07:30:08;100560.75;;;15.00;70.13
42067;BME280;27734;47.028;28.820;2023-04-23T07:32:37;100564.59;;;15.16;69.39
42067;BME280;27734;47.028;28.820;2023-04-23T07:35:07;100555.28;;;15.38;69.41
42067;BME280;27734;47.028;28.820;2023-04-23T07:37:37;100563.62;;;15.63;69.96
42067;BME280;27734;47.028;28.820;2023-04-23T07:40:08;100560.36;;;15.79;68.92
42067;BME280;27734;47.028;28.820;2023-04-23T07:42:36;100559.70;;;15.93;67.62
42067;BME280;27734;47.028;28.820;2023-04-23T07:45:08;100552.74;;;16.01;67.38
42067;BME280;27734;47.028;28.820;2023-04-23T07:47:38;100554.58;;;16.05;67.65
42067;BME280;27734;47.028;28.820;2023-04-23T07:50:08;100557.27;;;16.08;67.61
42067;BME280;27734;47.028;28.820;2023-04-23T07:52:37;100557.31;;;16.11;66.81
42067;BME280;27734;47.028;28.820;2023-04-23T07:55:07;100552.19;;;16.24;67.01
42067;BME280;27734;47.028;28.820;2023-04-23T07:57:36;100556.95;;;16.52;67.72
42067;BME280;27734;47.028;28.820;2023-04-23T08:00:07;100551.69;;;16.56;66.87
42067;BME280;27734;47.028;28.820;2023-04-23T08:02:42;100541.12;;;16.57;65.86
42067;BME280;27734;47.028;28.820;2023-04-23T08:05:10;100550.81;;;16.55;63.92
42067;BME280;27734;47.028;28.820;2023-04-23T08:07:39;100547.38;;;16.65;63.96
42067;BME280;27734;47.028;28.820;2023-04-23T08:10:09;100551.02;;;16.72;64.10
42067;BME280;27734;47.028;28.820;2023-04-23T08:12:38;100548.44;;;16.78;63.81
42067;BME280;27734;47.028;28.820;2023-04-23T08:15:08;100545.91;;;16.89;63.43
42067;BME280;27734;47.028;28.820;2023-04-23T08:17:39;100552.30;;;17.06;62.68
42067;BME280;27734;47.028;28.820;2023-04-23T08:20:09;100546.05;;;17.03;62.28
42067;BME280;27734;47.028;28.820;2023-04-23T08:22:38;100543.34;;;16.97;59.26
42067;BME280;27734;47.028;28.820;2023-04-23T08:25:08;100538.98;;;17.00;59.96
42067;BME280;27734;47.028;28.820;2023-04-23T08:27:37;100538.11;;;17.04;60.64
42067;BME280;27734;47.028;28.820;2023-04-23T08:30:08;100545.98;;;16.97;59.29
42067;BME280;27734;47.028;28.820;2023-04-23T08:32:38;100547.73;;;16.93;57.55
42067;BME280;27734;47.028;28.820;2023-04-23T08:35:08;100536.31;;;16.99;57.92
42067;BME280;27734;47.028;28.820;2023-04-23T08:37:37;100538.99;;;17.02;58.16
42067;BME280;27734;47.028;28.820;2023-04-23T08:40:09;100538.44;;;17.40;58.39
42067;BME280;27734;47.028;28.820;2023-04-23T08:42:42;100527.98;;;17.60;58.86
42067;BME280;27734;47.028;28.820;2023-04-23T08:45:11;100535.13;;;17.67;57.26
42067;BME280;27734;47.028;28.820;2023-04-23T08:47:41;100529.78;;;17.61;57.81
42067;BME280;27734;47.028;28.820;2023-04-23T08:50:11;100525.27;;;17.51;56.75
42067;BME280;27734;47.028;28.820;2023-04-23T08:52:41;100531.44;;;17.50;51.34
42067;BME280;27734;47.028;28.820;2023-04-23T08:55:18;100519.88;;;17.40;54.07
42067;BME280;27734;47.028;28.820;2023-04-23T08:57:49;100523.48;;;17.51;55.05
42067;BME280;27734;47.028;28.820;2023-04-23T09:00:19;100521.02;;;17.76;54.01
42067;BME280;27734;47.028;28.820;2023-04-23T09:02:49;100520.26;;;17.89;51.68
42067;BME280;27734;47.028;28.820;2023-04-23T09:05:18;100509.71;;;18.02;53.74
42067;BME280;27734;47.028;28.820;2023-04-23T09:07:46;100508.84;;;18.09;54.07
42067;BME280;27734;47.028;28.820;2023-04-23T09:10:15;100510.70;;;18.24;54.98
42067;BME280;27734;47.028;28.820;2023-04-23T09:12:44;100510.78;;;18.44;53.37
42067;BME280;27734;47.028;28.820;2023-04-23T09:15:13;100509.02;;;18.49;53.82
42067;BME280;27734;47.028;28.820;2023-04-23T09:17:45;100507.27;;;18.60;53.63
42067;BME280;27734;47.028;28.820;2023-04-23T09:20:14;100506.43;;;18.71;53.28
42067;BME280;27734;47.028;28.820;2023-04-23T09:22:44;100506.50;;;18.89;52.22
42067;BME280;27734;47.028;28.820;2023-04-23T09:25:15;100503.88;;;19.12;52.82
42067;BME280;27734;47.028;28.820;2023-04-23T09:27:44;100492.33;;;19.39;52.81
42067;BME280;27734;47.028;28.820;2023-04-23T09:30:14;100489.66;;;19.56;52.54
42067;BME280;27734;47.028;28.820;2023-04-23T09:32:44;100480.78;;;19.64;49.97
42067;BME280;27734;47.028;28.820;2023-04-23T09:35:15;100486.99;;;19.58;49.64
42067;BME280;27734;47.028;28.820;2023-04-23T09:37:45;100481.67;;;19.60;50.62
42067;BME280;27734;47.028;28.820;2023-04-23T09:40:16;100478.13;;;19.65;50.70
42067;BME280;27734;47.028;28.820;2023-04-23T09:42:48;100471.88;;;19.72;50.01
42067;BME280;27734;47.028;28.820;2023-04-23T09:45:17;100462.14;;;19.82;49.70
42067;BME280;27734;47.028;28.820;2023-04-23T09:47:50;100468.30;;;19.98;49.98
42067;BME280;27734;47.028;28.820;2023-04-23T09:50:19;100459.46;;;19.90;49.90
42067;BME280;27734;47.028;28.820;2023-04-23T09:52:58;100466.53;;;19.94;48.90
42067;BME280;27734;47.028;28.820;2023-04-23T09:55:32;100460.34;;;19.89;48.53
42067;BME280;27734;47.028;28.820;2023-04-23T09:58:04;100460.36;;;19.81;48.74
42067;BME280;27734;47.028;28.820;2023-04-23T10:00:37;100462.12;;;19.88;48.46
42067;BME280;27734;47.028;28.820;2023-04-23T10:03:06;100457.63;;;20.03;49.91
42067;BME280;27734;47.028;28.820;2023-04-23T10:05:38;100461.16;;;20.05;48.70
42067;BME280;27734;47.028;28.820;2023-04-23T10:08:07;100456.72;;;20.02;46.50
42067;BME280;27734;47.028;28.820;2023-04-23T10:10:36;100455.86;;;20.00;46.70
42067;BME280;27734;47.028;28.820;2023-04-23T10:13:07;100447.85;;;20.03;46.52
42067;BME280;27734;47.028;28.820;2023-04-23T10:15:36;100446.06;;;20.05;46.33
42067;BME280;27734;47.028;28.820;2023-04-23T10:18:05;100448.70;;;20.10;46.70
42067;BME280;27734;47.028;28.820;2023-04-23T10:20:34;100448.62;;;20.27;46.28
42067;BME280;27734;47.028;28.820;2023-04-23T10:23:05;100448.52;;;20.47;43.88
42067;BME280;27734;47.028;28.820;2023-04-23T10:25:36;100449.33;;;20.60;44.36
42067;BME280;27734;47.028;28.820;2023-04-23T10:28:08;100449.33;;;20.60;43.73
42067;BME280;27734;47.028;28.820;2023-04-23T10:30:39;100449.31;;;20.61;43.17
42067;BME280;27734;47.028;28.820;2023-04-23T10:33:09;100439.56;;;20.62;43.68
42067;BME280;27734;47.028;28.820;2023-04-23T10:35:38;100438.67;;;20.64;43.95
42067;BME280;27734;47.028;28.820;2023-04-23T10:38:07;100436.91;;;20.60;43.65
42067;BME280;27734;47.028;28.820;2023-04-23T10:40:37;100436.90;;;20.67;42.53
42067;BME280;27734;47.028;28.820;2023-04-23T10:43:08;100433.27;;;20.75;42.51
42067;BME280;27734;47.028;28.820;2023-04-23T10:45:37;100434.15;;;20.79;42.53
42067;BME280;27734;47.028;28.820;2023-04-23T10:48:05;100435.11;;;20.67;41.97
42067;BME280;27734;47.028;28.820;2023-04-23T10:50:36;100426.20;;;20.73;42.59
42067;BME280;27734;47.028;28.820;2023-04-23T10:53:04;100430.59;;;20.75;41.83
42067;BME280;27734;47.028;28.820;2023-04-23T10:55:45;100432.41;;;20.72;42.83
42067;BME280;27734;47.028;28.820;2023-04-23T10:58:14;100433.31;;;20.63;42.65
42067;BME280;27734;47.028;28.820;2023-04-23T11:00:44;100436.14;;;20.41;42.68
42067;BME280;27734;47.028;28.820;2023-04-23T11:03:36;100437.09;;;20.28;42.12
42067;BME280;27734;47.028;28.820;2023-04-23T11:06:07;100432.70;;;20.13;43.15
42067;BME280;27734;47.028;28.820;2023-04-23T11:08:36;100437.20;;;20.02;42.17
42067;BME280;27734;47.028;28.820;2023-04-23T11:11:08;100436.38;;;19.87;41.72
42067;BME280;27734;47.028;28.820;2023-04-23T11:13:50;100440.83;;;19.74;41.40
42067;BME280;27734;47.028;28.820;2023-04-23T11:16:22;100437.30;;;19.55;41.81
42067;BME280;27734;47.028;28.820;2023-04-23T11:19:02;100443.56;;;19.42;41.69
42067;BME280;27734;47.028;28.820;2023-04-23T11:21:56;100449.77;;;19.32;41.64
42067;BME280;27734;47.028;28.820;2023-04-23T11:24:25;100448.02;;;19.18;42.09
42067;BME280;27734;47.028;28.820;2023-04-23T11:26:54;100454.22;;;19.14;41.55
42067;BME280;27734;47.028;28.820;2023-04-23T11:29:24;100464.86;;;19.11;42.33
42067;BME280;27734;47.028;28.820;2023-04-23T11:31:53;100464.85;;;19.03;42.16
42067;BME280;27734;47.028;28.820;2023-04-23T11:34:22;100457.77;;;18.90;41.63
42067;BME280;27734;47.028;28.820;2023-04-23T11:36:53;100466.56;;;18.74;42.27
42067;BME280;27734;47.028;28.820;2023-04-23T11:39:22;100477.16;;;18.58;42.06
42067;BME280;27734;47.028;28.820;2023-04-23T11:41:51;100478.89;;;18.39;43.37
42067;BME280;27734;47.028;28.820;2023-04-23T11:44:20;100481.47;;;18.19;43.53
42067;BME280;27734;47.028;28.820;2023-04-23T11:46:49;100481.37;;;18.01;44.28
42067;BME280;27734;47.028;28.820;2023-04-23T11:49:19;100477.70;;;17.80;44.81
42067;BME280;27734;47.028;28.820;2023-04-23T11:51:48;100481.11;;;17.60;45.52
42067;BME280;27734;47.028;28.820;2023-04-23T11:54:17;100493.39;;;17.46;45.68
42067;BME280;27734;47.028;28.820;2023-04-23T11:56:46;100488.05;;;17.40;45.94
42067;BME280;27734;47.028;28.820;2023-04-23T11:59:15;100494.22;;;17.39;46.37
42067;BME280;27734;47.028;28.820;2023-04-23T12:01:45;100487.19;;;17.42;46.78
42067;BME280;27734;47.028;28.820;2023-04-23T12:04:15;100488.09;;;17.46;47.17
42067;BME280;27734;47.028;28.820;2023-04-23T12:06:48;100483.66;;;17.47;46.90
42067;BME280;27734;47.028;28.820;2023-04-23T12:09:20;100473.97;;;17.49;46.86
42067;BME280;27734;47.028;28.820;2023-04-23T12:11:49;100475.73;;;17.51;46.72
42067;BME280;27734;47.028;28.820;2023-04-23T12:14:20;100478.40;;;17.53;46.98
42067;BME280;27734;47.028;28.820;2023-04-23T12:16:51;100471.34;;;17.52;45.99
42067;BME280;27734;47.028;28.820;2023-04-23T12:19:23;100471.34;;;17.52;46.40
42067;BME280;27734;47.028;28.820;2023-04-23T12:21:54;100470.44;;;17.53;46.13
42067;BME280;27734;47.028;28.820;2023-04-23T12:24:24;100465.13;;;17.51;45.82
42067;BME280;27734;47.028;28.820;2023-04-23T12:26:54;100468.68;;;17.50;45.98
42067;BME280;27734;47.028;28.820;2023-04-23T12:29:25;100467.79;;;17.53;46.38
42067;BME280;27734;47.028;28.820;2023-04-23T12:31:58;100474.92;;;17.60;46.31
42067;BME280;27734;47.028;28.820;2023-04-23T12:34:27;100466.12;;;17.66;46.15
42067;BME280;27734;47.028;28.820;2023-04-23T12:36:55;100466.12;;;17.66;45.78
42067;BME280;27734;47.028;28.820;2023-04-23T12:39:29;100463.48;;;17.67;46.09
42067;BME280;27734;47.028;28.820;2023-04-23T12:41:58;100456.44;;;17.74;46.31
42067;BME280;27734;47.028;28.820;2023-04-23T12:44:28;100454.70;;;17.82;46.21
42067;BME280;27734;47.028;28.820;2023-04-23T12:46:59;100443.29;;;17.91;46.30
42067;BME280;27734;47.028;28.820;2023-04-23T12:49:30;100445.06;;;17.96;46.46
42067;BME280;27734;47.028;28.820;2023-04-23T12:52:00;100444.21;;;18.01;46.16
42067;BME280;27734;47.028;28.820;2023-04-23T12:54:30;100438.05;;;18.05;46.06
42067;BME280;27734;47.028;28.820;2023-04-23T12:56:59;100427.45;;;18.12;46.00
42067;BME280;27734;47.028;28.820;2023-04-23T12:59:30;100425.70;;;18.19;46.60